createdAt,value
2018-03-11T00:01:57.826Z,91.65
2018-03-11T00:04:25.297Z,91.83
2018-03-11T00:06:52.796Z,92.19
2018-03-11T00:09:20.300Z,92.10
2018-03-11T00:11:47.777Z,91.96
2018-03-11T00:14:15.275Z,91.95
2018-03-11T00:16:42.938Z,91.94
2018-03-11T00:19:10.434Z,91.74
2018-03-11T00:21:37.916Z,91.61
2018-03-11T00:24:05.405Z,91.47
2018-03-11T00:26:32.910Z,91.53
2018-03-11T00:29:00.404Z,91.32
2018-03-11T00:31:27.917Z,91.54
2018-03-11T00:33:55.430Z,91.63
2018-03-11T00:36:22.921Z,91.44
2018-03-11T00:38:50.405Z,91.41
2018-03-11T00:41:17.900Z,91.69
2018-03-11T00:43:45.397Z,91.89
2018-03-11T00:46:12.882Z,92.14
2018-03-11T00:48:40.376Z,92.26
2018-03-11T00:51:07.887Z,92.43
2018-03-11T00:53:35.362Z,92.23
2018-03-11T00:56:02.860Z,93.03
2018-03-11T00:58:30.367Z,93.88
2018-03-11T01:00:57.854Z,93.94
2018-03-11T01:03:25.353Z,94.03
2018-03-11T01:05:52.873Z,94.00
2018-03-11T01:08:20.346Z,94.06
2018-03-11T01:10:47.821Z,94.22
2018-03-11T01:13:15.303Z,94.52
2018-03-11T01:15:42.816Z,94.18
2018-03-11T01:18:10.337Z,94.02
2018-03-11T01:20:37.830Z,94.12
2018-03-11T01:23:05.310Z,94.46
2018-03-11T01:25:32.815Z,94.55
2018-03-11T01:28:00.308Z,95.21
2018-03-11T01:30:27.790Z,94.92
2018-03-11T01:32:55.324Z,95.51
2018-03-11T01:35:22.830Z,95.06
2018-03-11T01:37:50.338Z,95.96
2018-03-11T01:40:17.848Z,95.77
2018-03-11T01:42:45.346Z,95.80
2018-03-11T01:45:12.857Z,96.14
2018-03-11T01:47:40.372Z,97.30
2018-03-11T01:50:07.870Z,98.31
2018-03-11T01:52:47.148Z,97.86
2018-03-11T01:55:14.709Z,98.21
2018-03-11T01:57:42.199Z,98.16
2018-03-11T02:00:09.727Z,98.42
2018-03-11T02:02:37.214Z,98.04
2018-03-11T02:05:04.712Z,97.69
2018-03-11T02:07:32.219Z,97.38
2018-03-11T02:09:59.716Z,97.64
2018-03-11T02:12:27.221Z,98.09
2018-03-11T02:14:54.863Z,98.25
2018-03-11T02:17:22.369Z,99.11
2018-03-11T02:19:49.853Z,99.62
2018-03-11T02:22:17.344Z,99.79
2018-03-11T02:24:44.839Z,99.61
2018-03-11T02:27:12.371Z,99.63
2018-03-11T02:29:39.849Z,99.10
2018-03-11T02:32:07.393Z,98.99
2018-03-11T02:34:34.886Z,99.12
2018-03-11T02:37:02.414Z,98.62
2018-03-11T02:39:29.910Z,98.58
2018-03-11T02:41:57.414Z,98.76
2018-03-11T02:44:24.908Z,98.57
2018-03-11T02:46:52.405Z,97.99
2018-03-11T02:49:19.926Z,98.10
2018-03-11T02:51:47.432Z,97.93
2018-03-11T02:54:14.918Z,97.77
2018-03-11T02:56:42.407Z,97.69
2018-03-11T02:59:09.905Z,97.89
2018-03-11T03:01:37.486Z,97.97
2018-03-11T03:04:05.122Z,98.46
2018-03-11T03:06:32.625Z,98.52
2018-03-11T03:09:00.105Z,98.99
2018-03-11T03:11:27.596Z,98.82
2018-03-11T03:13:55.107Z,98.69
2018-03-11T03:16:22.596Z,98.54
2018-03-11T03:18:50.074Z,98.48
2018-03-11T03:21:17.570Z,98.50
2018-03-11T03:23:45.042Z,98.23
2018-03-11T03:26:12.524Z,98.07
2018-03-11T03:28:40.018Z,98.08
2018-03-11T03:31:07.505Z,97.91
2018-03-11T03:33:35.000Z,97.87
2018-03-11T03:36:02.491Z,98.02
2018-03-11T03:38:30.050Z,98.27
2018-03-11T03:40:57.508Z,98.69
2018-03-11T03:43:25.012Z,98.63
2018-03-11T03:45:52.532Z,98.89
2018-03-11T03:48:20.035Z,99.16
2018-03-11T03:50:47.546Z,99.32
2018-03-11T03:53:15.060Z,99.46
2018-03-11T03:55:42.560Z,99.32
2018-03-11T03:58:10.068Z,99.35
2018-03-11T04:00:37.572Z,99.35
2018-03-11T04:03:05.093Z,99.39
2018-03-11T04:05:32.585Z,99.34
2018-03-11T04:08:00.081Z,99.16
2018-03-11T04:10:27.630Z,99.20
2018-03-11T04:12:55.120Z,98.94
2018-03-11T04:15:22.619Z,98.87
2018-03-11T04:17:50.145Z,98.88
2018-03-11T04:20:17.652Z,98.66
2018-03-11T04:22:45.126Z,98.56
2018-03-11T04:25:12.619Z,98.69
2018-03-11T04:27:40.125Z,98.65
2018-03-11T04:30:07.624Z,98.72
2018-03-11T04:32:35.116Z,98.70
2018-03-11T04:35:02.597Z,98.83
2018-03-11T04:37:30.087Z,98.86
2018-03-11T04:39:57.604Z,98.97
2018-03-11T04:42:25.108Z,98.99
2018-03-11T04:44:52.598Z,99.30
2018-03-11T04:47:20.116Z,99.17
2018-03-11T04:49:47.616Z,98.78
2018-03-11T04:52:15.094Z,98.74
2018-03-11T04:54:42.595Z,98.63
2018-03-11T04:57:10.083Z,98.57
2018-03-11T04:59:37.576Z,98.81
2018-03-11T05:02:05.072Z,98.93
2018-03-11T05:04:32.562Z,99.00
2018-03-11T05:07:00.052Z,98.98
2018-03-11T05:09:27.531Z,99.01
2018-03-11T05:11:55.033Z,98.99
2018-03-11T05:14:22.518Z,98.92
2018-03-11T05:16:50.012Z,99.05
2018-03-11T05:19:17.512Z,99.12
2018-03-11T05:21:45.007Z,99.01
2018-03-11T05:24:12.559Z,99.08
2018-03-11T05:26:39.988Z,99.17
2018-03-11T05:29:07.454Z,99.39
2018-03-11T05:31:35.016Z,99.40
2018-03-11T05:34:02.517Z,99.26
2018-03-11T05:36:30.021Z,99.65
2018-03-11T05:38:57.546Z,99.76
2018-03-11T05:41:25.120Z,99.76
2018-03-11T05:43:52.617Z,99.71
2018-03-11T05:46:20.141Z,99.66
2018-03-11T05:48:48.754Z,99.50
2018-03-11T05:51:16.218Z,99.49
2018-03-11T05:53:43.714Z,99.57
2018-03-11T05:56:11.208Z,99.79
2018-03-11T05:58:38.861Z,99.86
2018-03-11T06:01:06.348Z,100.00
2018-03-11T06:03:34.082Z,99.91
2018-03-11T06:06:01.566Z,99.94
2018-03-11T06:08:29.037Z,100.00
2018-03-11T06:10:56.549Z,100.00
2018-03-11T06:13:24.052Z,100.00
2018-03-11T06:15:51.583Z,99.99
2018-03-11T06:18:19.105Z,99.82
2018-03-11T06:20:46.617Z,99.86
2018-03-11T06:23:14.089Z,99.83
2018-03-11T06:25:41.593Z,99.89
2018-03-11T06:28:09.091Z,99.85
2018-03-11T06:30:36.594Z,99.94
2018-03-11T06:33:04.115Z,99.64
2018-03-11T06:35:31.607Z,99.18
2018-03-11T06:37:59.082Z,98.75
2018-03-11T06:40:26.648Z,98.24
2018-03-11T06:42:54.166Z,98.02
2018-03-11T06:45:21.657Z,97.34
2018-03-11T06:47:49.168Z,96.22
2018-03-11T06:50:16.660Z,96.58
2018-03-11T06:52:44.190Z,95.97
2018-03-11T06:55:11.849Z,96.19
2018-03-11T06:57:39.349Z,95.55
2018-03-11T07:00:06.872Z,94.71
2018-03-11T07:02:34.368Z,93.65
2018-03-11T07:05:01.869Z,93.31
2018-03-11T07:07:29.362Z,91.92
2018-03-11T07:09:56.854Z,90.68
2018-03-11T07:12:24.361Z,89.87
2018-03-11T07:14:51.904Z,87.79
2018-03-11T07:17:19.392Z,87.72
2018-03-11T07:19:46.895Z,85.52
2018-03-11T07:22:15.470Z,84.85
2018-03-11T07:24:42.988Z,84.93
2018-03-11T07:27:10.506Z,86.07
2018-03-11T07:29:38.001Z,87.13
2018-03-11T07:32:05.494Z,87.67
2018-03-11T07:34:33.009Z,86.25
2018-03-11T07:37:00.576Z,87.14
2018-03-11T07:39:28.165Z,87.05
2018-03-11T07:41:55.724Z,87.32
2018-03-11T07:44:23.277Z,86.77
2018-03-11T07:46:50.785Z,86.12
2018-03-11T07:49:18.333Z,84.94
2018-03-11T07:51:46.917Z,86.40
2018-03-11T07:54:14.453Z,86.66
2018-03-11T07:56:42.070Z,86.87
2018-03-11T07:59:09.577Z,85.45
2018-03-11T08:01:37.147Z,84.45
2018-03-11T08:04:04.686Z,83.47
2018-03-11T08:06:32.194Z,83.41
2018-03-11T08:08:59.711Z,81.87
2018-03-11T08:11:27.198Z,81.31
2018-03-11T08:13:54.688Z,81.09
2018-03-11T08:16:22.219Z,79.32
2018-03-11T08:18:49.746Z,80.89
2018-03-11T08:21:17.272Z,81.82
2018-03-11T08:23:44.769Z,82.06
2018-03-11T08:26:12.259Z,82.09
2018-03-11T08:28:39.746Z,81.28
2018-03-11T08:31:07.260Z,80.81
2018-03-11T08:33:34.735Z,79.09
2018-03-11T08:36:02.272Z,78.60
2018-03-11T08:38:29.757Z,77.71
2018-03-11T08:40:57.258Z,75.71
2018-03-11T08:43:24.742Z,75.83
2018-03-11T08:45:52.241Z,76.02
2018-03-11T08:48:19.756Z,76.61
2018-03-11T08:50:47.263Z,75.75
2018-03-11T08:53:14.816Z,75.64
2018-03-11T08:55:42.315Z,75.08
2018-03-11T08:58:09.811Z,72.31
2018-03-11T09:00:37.333Z,73.90
2018-03-11T09:03:04.833Z,75.22
2018-03-11T09:05:32.320Z,76.38
2018-03-11T09:07:59.820Z,76.11
2018-03-11T09:10:27.327Z,78.22
2018-03-11T09:12:54.840Z,77.97
2018-03-11T09:15:22.333Z,79.43
2018-03-11T09:17:49.860Z,78.14
2018-03-11T09:20:17.353Z,78.10
2018-03-11T09:22:44.857Z,78.32
2018-03-11T09:25:12.372Z,79.14
2018-03-11T09:27:39.845Z,80.25
2018-03-11T09:30:07.345Z,80.34
2018-03-11T09:32:34.844Z,80.57
2018-03-11T09:35:02.360Z,80.38
2018-03-11T09:37:29.974Z,80.85
2018-03-11T09:39:57.552Z,80.41
2018-03-11T09:42:25.287Z,80.10
2018-03-11T09:44:52.964Z,80.16
2018-03-11T09:47:20.499Z,81.03
2018-03-11T09:49:47.991Z,80.95
2018-03-11T09:52:15.465Z,81.31
2018-03-11T09:54:42.959Z,81.31
2018-03-11T09:57:10.481Z,81.37
2018-03-11T09:59:38.018Z,80.94
2018-03-11T10:02:05.536Z,78.75
2018-03-11T10:04:33.044Z,79.18
2018-03-11T10:07:00.533Z,78.32
2018-03-11T10:09:28.039Z,77.51
2018-03-11T10:11:55.532Z,78.53
2018-03-11T10:14:23.037Z,77.01
2018-03-11T10:16:50.535Z,75.76
2018-03-11T10:19:18.231Z,74.30
2018-03-11T10:21:45.754Z,75.60
2018-03-11T10:24:13.262Z,75.08
2018-03-11T10:26:40.753Z,74.18
2018-03-11T10:29:08.244Z,76.12
2018-03-11T10:31:35.726Z,74.36
2018-03-11T10:34:03.200Z,76.37
2018-03-11T10:36:30.692Z,74.81
2018-03-11T10:38:58.196Z,75.15
2018-03-11T10:41:25.707Z,75.47
2018-03-11T10:43:53.230Z,76.86
2018-03-11T10:46:20.720Z,75.97
2018-03-11T10:48:48.216Z,77.72
2018-03-11T10:51:15.716Z,79.06
2018-03-11T10:53:43.263Z,79.21
2018-03-11T10:56:10.753Z,79.27
2018-03-11T10:58:38.229Z,79.18
2018-03-11T11:01:11.276Z,79.27
2018-03-11T11:03:38.777Z,78.49
2018-03-11T11:06:06.285Z,78.65
2018-03-11T11:08:33.789Z,76.73
2018-03-11T11:11:01.300Z,76.93
2018-03-11T11:13:28.802Z,76.27
2018-03-11T11:15:56.286Z,77.66
2018-03-11T11:18:23.778Z,77.80
2018-03-11T11:20:51.337Z,77.02
2018-03-11T11:23:18.878Z,78.00
2018-03-11T11:25:46.388Z,77.99
2018-03-11T11:28:13.882Z,77.85
2018-03-11T11:30:41.403Z,77.42
2018-03-11T11:33:08.908Z,77.96
2018-03-11T11:35:36.416Z,77.67
2018-03-11T11:38:03.994Z,77.48
2018-03-11T11:40:31.504Z,78.15
2018-03-11T11:42:59.015Z,78.16
2018-03-11T11:45:26.517Z,77.73
2018-03-11T11:47:54.023Z,77.88
2018-03-11T11:50:21.521Z,77.35
2018-03-11T11:52:49.020Z,78.55
2018-03-11T11:55:16.502Z,78.53
2018-03-11T11:57:44.059Z,78.07
2018-03-11T12:00:11.553Z,78.29
2018-03-11T12:02:39.069Z,77.98
2018-03-11T12:05:06.572Z,79.23
2018-03-11T12:07:34.106Z,79.04
2018-03-11T12:10:01.637Z,78.46
2018-03-11T12:12:29.183Z,78.44
2018-03-11T12:14:56.670Z,78.63
2018-03-11T12:17:24.232Z,78.92
2018-03-11T12:19:51.758Z,79.16
2018-03-11T12:22:19.232Z,79.48
2018-03-11T12:24:46.848Z,78.85
2018-03-11T12:27:14.363Z,78.61
2018-03-11T12:29:41.840Z,78.77
2018-03-11T12:32:09.322Z,78.95
2018-03-11T12:34:36.798Z,78.97
2018-03-11T12:37:05.549Z,78.69
2018-03-11T12:39:33.179Z,78.45
2018-03-11T12:42:00.662Z,78.74
2018-03-11T12:44:28.185Z,78.63
2018-03-11T12:46:55.674Z,78.88
2018-03-11T12:49:23.629Z,79.16
2018-03-11T12:51:51.128Z,79.21
2018-03-11T12:54:18.642Z,78.35
2018-03-11T12:56:46.095Z,78.53
2018-03-11T12:59:13.567Z,78.89
2018-03-11T13:01:41.023Z,78.84
2018-03-11T13:04:08.470Z,79.20
2018-03-11T13:06:36.001Z,78.74
2018-03-11T13:09:03.562Z,78.37
2018-03-11T13:11:31.029Z,78.36
2018-03-11T13:13:58.494Z,78.20
2018-03-11T13:16:25.975Z,78.23
2018-03-11T13:18:53.467Z,78.15
2018-03-11T13:21:20.950Z,78.18
2018-03-11T13:23:48.454Z,77.87
2018-03-11T13:26:15.914Z,78.42
2018-03-11T13:28:50.182Z,78.33
2018-03-11T13:31:17.638Z,78.43
2018-03-11T13:33:56.962Z,78.13
2018-03-11T13:36:24.409Z,78.56
2018-03-11T13:39:03.718Z,78.54
2018-03-11T13:41:31.197Z,78.91
2018-03-11T13:43:58.704Z,78.78
2018-03-11T13:46:37.972Z,78.50
2018-03-11T13:49:05.442Z,78.86
2018-03-11T13:51:45.764Z,78.92
2018-03-11T13:54:13.201Z,79.31
2018-03-11T14:02:15.176Z,78.96
2018-03-11T14:04:42.738Z,79.04
2018-03-11T14:07:10.402Z,78.67
2018-03-11T14:09:37.894Z,79.29
2018-03-11T14:12:05.425Z,79.18
2018-03-11T14:14:32.906Z,78.82
2018-03-11T14:17:00.460Z,79.12
2018-03-11T14:19:27.989Z,78.80
2018-03-11T14:21:55.490Z,79.28
2018-03-11T14:24:23.004Z,79.41
2018-03-11T14:26:51.259Z,79.69
2018-03-11T14:29:18.780Z,79.90
2018-03-11T14:31:46.263Z,80.18
2018-03-11T14:34:13.748Z,80.43
2018-03-11T14:36:41.240Z,80.53
2018-03-11T14:39:08.719Z,80.34
2018-03-11T14:41:36.235Z,80.12
2018-03-11T14:44:03.726Z,80.35
2018-03-11T14:46:31.234Z,80.72
2018-03-11T14:48:58.732Z,80.29
2018-03-11T14:51:26.721Z,80.43
2018-03-11T14:53:54.194Z,80.72
2018-03-11T14:56:21.846Z,80.41
2018-03-11T14:58:49.336Z,80.92
2018-03-11T15:01:16.829Z,80.44
2018-03-11T15:03:44.324Z,80.27
2018-03-11T15:06:11.806Z,80.40
2018-03-11T15:08:39.424Z,80.22
2018-03-11T15:11:06.911Z,80.60
2018-03-11T15:13:34.431Z,79.86
2018-03-11T15:16:01.925Z,80.45
2018-03-11T15:18:29.395Z,80.15
2018-03-11T15:20:56.881Z,80.27
2018-03-11T15:23:24.516Z,80.22
2018-03-11T15:25:52.002Z,79.71
2018-03-11T15:28:19.466Z,80.33
2018-03-11T15:30:47.046Z,79.75
2018-03-11T15:33:14.518Z,79.72
2018-03-11T15:35:42.016Z,79.82
2018-03-11T15:38:09.536Z,79.54
2018-03-11T15:40:37.024Z,79.60
2018-03-11T15:43:04.545Z,79.54
2018-03-11T15:45:32.053Z,79.38
2018-03-11T15:47:59.552Z,79.39
2018-03-11T15:50:27.023Z,79.25
2018-03-11T15:52:54.553Z,79.75
2018-03-11T15:55:22.778Z,79.32
2018-03-11T15:57:50.346Z,79.17
2018-03-11T16:00:17.869Z,79.02
2018-03-11T16:02:45.358Z,79.33
2018-03-11T16:05:12.928Z,79.44
2018-03-11T16:07:40.575Z,80.04
2018-03-11T16:10:08.076Z,80.04
2018-03-11T16:12:36.522Z,79.79
2018-03-11T16:15:04.810Z,79.76
2018-03-11T16:17:32.355Z,79.83
2018-03-11T16:19:59.947Z,80.23
2018-03-11T16:22:27.434Z,80.33
2018-03-11T16:24:54.980Z,80.37
2018-03-11T16:27:22.501Z,80.22
2018-03-11T16:29:49.991Z,79.87
2018-03-11T16:32:17.493Z,80.37
2018-03-11T16:34:45.053Z,80.25
2018-03-11T16:37:12.607Z,80.40
2018-03-11T16:39:40.172Z,80.83
2018-03-11T16:42:07.657Z,80.40
2018-03-11T16:44:35.158Z,80.24
2018-03-11T16:47:02.695Z,80.39
2018-03-11T16:49:30.174Z,80.94
2018-03-11T16:51:57.751Z,81.38
2018-03-11T16:54:25.269Z,81.51
2018-03-11T16:56:52.854Z,81.32
2018-03-11T16:59:20.597Z,81.41
2018-03-11T17:01:48.068Z,81.77
2018-03-11T17:04:15.581Z,81.90
2018-03-11T17:06:43.066Z,82.68
2018-03-11T17:09:10.546Z,83.01
2018-03-11T17:11:38.107Z,82.80
2018-03-11T17:14:05.709Z,82.90
2018-03-11T17:16:33.267Z,83.00
2018-03-11T17:19:00.797Z,83.17
2018-03-11T17:21:28.346Z,83.75
2018-03-11T17:23:55.843Z,83.84
2018-03-11T17:26:23.411Z,84.06
2018-03-11T17:28:51.036Z,84.51
2018-03-11T17:31:18.614Z,84.25
2018-03-11T17:33:46.108Z,84.75
2018-03-11T17:36:13.719Z,84.92
2018-03-11T17:38:41.244Z,85.42
2018-03-11T17:41:12.398Z,85.70
2018-03-11T17:43:39.940Z,85.84
2018-03-11T17:46:07.477Z,86.19
2018-03-11T17:48:39.292Z,86.84
2018-03-11T17:51:06.785Z,86.98
2018-03-11T17:53:34.268Z,87.07
2018-03-11T17:56:01.807Z,87.67
2018-03-11T17:58:29.382Z,87.62
2018-03-11T18:00:56.957Z,87.67
2018-03-11T18:03:24.478Z,87.81
2018-03-11T18:05:53.781Z,88.27
2018-03-11T18:08:21.363Z,88.18
2018-03-11T18:10:48.874Z,88.56
2018-03-11T18:13:16.388Z,88.91
2018-03-11T18:15:43.908Z,89.10
2018-03-11T18:18:11.472Z,89.11
2018-03-11T18:20:38.990Z,89.27
2018-03-11T18:23:06.482Z,89.54
2018-03-11T18:25:34.008Z,89.31
2018-03-11T18:28:01.566Z,89.20
2018-03-11T18:30:29.060Z,88.44
2018-03-11T18:32:56.591Z,88.04
2018-03-11T18:35:24.086Z,87.91
2018-03-11T18:37:52.453Z,87.67
2018-03-11T18:40:23.303Z,87.62
2018-03-11T18:42:50.850Z,87.45
2018-03-11T18:45:18.445Z,87.27
2018-03-11T18:47:45.957Z,87.30
2018-03-11T18:50:13.493Z,87.27
2018-03-11T18:52:41.007Z,86.93
2018-03-11T18:55:08.635Z,86.70
2018-03-11T18:57:36.188Z,86.62
2018-03-11T19:00:03.762Z,86.79
2018-03-11T19:02:31.282Z,86.92
2018-03-11T19:05:00.464Z,87.11
2018-03-11T19:07:27.976Z,87.12
2018-03-11T19:09:55.756Z,87.30
2018-03-11T19:12:23.250Z,87.42
2018-03-11T19:14:50.748Z,87.64
2018-03-11T19:17:18.242Z,87.69
2018-03-11T19:19:45.765Z,88.03
2018-03-11T19:22:13.271Z,88.25
2018-03-11T19:24:40.802Z,88.42
2018-03-11T19:27:08.480Z,88.49
2018-03-11T19:29:35.971Z,88.64
2018-03-11T19:32:03.448Z,88.58
2018-03-11T19:34:30.977Z,88.64
2018-03-11T19:36:59.038Z,88.81
2018-03-11T19:39:26.557Z,88.63
2018-03-11T19:41:54.052Z,88.81
2018-03-11T19:44:21.562Z,88.66
2018-03-11T19:46:49.110Z,88.54
2018-03-11T19:49:16.622Z,88.33
2018-03-11T19:51:44.138Z,88.20
2018-03-11T19:54:12.304Z,88.16
2018-03-11T19:56:39.802Z,88.08
2018-03-11T19:59:07.335Z,88.52
2018-03-11T20:01:36.358Z,88.15
2018-03-11T20:04:03.863Z,88.30
2018-03-11T20:06:31.364Z,88.47
2018-03-11T20:08:58.972Z,88.45
2018-03-11T20:11:26.471Z,88.62
2018-03-11T20:13:53.963Z,89.14
2018-03-11T20:16:21.470Z,89.23
2018-03-11T20:18:48.954Z,89.66
2018-03-11T20:21:16.476Z,89.65
2018-03-11T20:23:43.968Z,89.67
2018-03-11T20:26:11.449Z,90.15
2018-03-11T20:28:39.111Z,90.09
2018-03-11T20:31:06.610Z,90.56
2018-03-11T20:33:34.136Z,90.72
2018-03-11T20:36:01.668Z,90.88
2018-03-11T20:38:29.172Z,91.98
2018-03-11T20:40:56.720Z,92.13
2018-03-11T20:43:24.217Z,92.34
2018-03-11T20:45:51.767Z,92.23
2018-03-11T20:48:19.329Z,92.25
2018-03-11T20:50:46.880Z,92.62
2018-03-11T20:53:14.428Z,92.87
2018-03-11T20:55:41.923Z,92.87
2018-03-11T20:58:09.509Z,92.89
2018-03-11T21:00:37.035Z,92.59
2018-03-11T21:03:04.529Z,92.74
2018-03-11T21:05:33.014Z,92.71
2018-03-11T21:08:00.512Z,92.49
2018-03-11T21:10:28.012Z,92.56
2018-03-11T21:12:56.539Z,92.83
2018-03-11T21:15:24.016Z,92.91
2018-03-11T21:17:51.516Z,93.12
2018-03-11T21:20:19.022Z,93.01
2018-03-11T21:22:46.591Z,93.33
2018-03-11T21:25:14.098Z,93.69
2018-03-11T21:27:41.581Z,93.64
2018-03-11T21:30:09.116Z,93.58
2018-03-11T21:32:36.616Z,93.81
2018-03-11T21:35:04.128Z,94.09
2018-03-11T21:37:31.646Z,94.28
2018-03-11T21:39:59.185Z,94.00
2018-03-11T21:42:26.687Z,94.49
2018-03-11T21:44:54.166Z,95.05
2018-03-11T21:47:21.634Z,95.40
2018-03-11T21:49:49.128Z,95.38
2018-03-11T21:52:16.615Z,95.34
2018-03-11T21:54:44.139Z,95.45
2018-03-11T21:57:11.633Z,95.44
2018-03-11T21:59:39.139Z,95.47
2018-03-11T22:02:06.661Z,95.46
2018-03-11T22:04:34.195Z,95.51
2018-03-11T22:07:01.734Z,95.91
2018-03-11T22:09:29.236Z,95.84
2018-03-11T22:11:56.763Z,95.66
2018-03-11T22:14:24.251Z,95.52
2018-03-11T22:16:51.776Z,95.38
2018-03-11T22:19:19.301Z,94.94
2018-03-11T22:21:46.803Z,94.99
2018-03-11T22:24:14.297Z,95.26
2018-03-11T22:26:41.818Z,94.37
2018-03-11T22:29:09.362Z,95.45
2018-03-11T22:31:36.907Z,95.45
2018-03-11T22:34:04.542Z,95.40
2018-03-11T22:36:32.073Z,95.95
2018-03-11T22:38:59.606Z,96.25
2018-03-11T22:41:27.126Z,96.32
2018-03-11T22:43:54.630Z,96.52
2018-03-11T22:46:22.268Z,96.37
2018-03-11T22:48:49.852Z,96.11
2018-03-11T22:51:17.352Z,96.41
2018-03-11T22:53:45.063Z,96.88
2018-03-11T22:56:12.631Z,96.70
2018-03-11T22:58:40.304Z,96.81
2018-03-11T23:01:07.841Z,96.51
2018-03-11T23:03:35.330Z,96.69
2018-03-11T23:06:02.820Z,97.11
2018-03-11T23:08:30.328Z,97.38
2018-03-11T23:10:57.977Z,97.24
2018-03-11T23:13:25.474Z,97.54
2018-03-11T23:15:53.031Z,97.64
2018-03-11T23:18:20.527Z,97.58
2018-03-11T23:20:48.020Z,97.71
2018-03-11T23:23:15.516Z,97.69
2018-03-11T23:25:43.041Z,97.69
2018-03-11T23:28:10.522Z,97.82
2018-03-11T23:30:38.021Z,97.91
2018-03-11T23:33:05.540Z,97.84
2018-03-11T23:35:33.049Z,97.95
2018-03-11T23:38:00.571Z,98.37
2018-03-11T23:40:28.100Z,98.15
2018-03-11T23:42:55.606Z,98.48
2018-03-11T23:45:23.136Z,99.09
2018-03-11T23:47:50.703Z,99.67
2018-03-11T23:50:18.224Z,99.82
2018-03-11T23:52:45.716Z,99.66
2018-03-11T23:55:13.227Z,99.64
2018-03-11T23:57:40.722Z,99.68
